メインページ
METAR-TAF:

METAR-TAF

空港 :

オークランド国際空港

オークランド, ニュージーランド

緯度: 37-01S, 経度: 174-48E, 海抜: 7m

現時点の気象観測

当レポートは26分前の06:00(UTC)に作成
南西の風 12kt
気温 17°C
湿度 72%
気圧 1026 hPa
視程10km以上

METAR: NZAA 200600Z AUTO 23012KT 9999 NCD 17/12 Q1026 NOSIG

時間: 19:26 (06:26 UTC)

予報

当レポートは1時間23分前の05:03(UTC)に作成
予報は20日の 06時(UTC)から 21日の 06時(UTC)まで有効
南西の風 10kt
視程10km以上
高度4000ftの雲はほとんどない
20日の 0800時(UTC)から
変向風 2kt
視程10km以上
高度2000ftの千切れ雲あり
20日の 2300時(UTC)から
南西の風 10kt
視程10km以上
高度4000ftの雲はほとんどない

TAF: NZAA 200503Z 2006/2106 22010KT 9999 FEW040 FM200800 VRB02KT 9999 BKN020 FM202300 22010KT 9999 FEW040

4,000以上の空港の気象観測と天気予報(METAR報とTAF報)

利用可能な観測所は地図上に黄色い丸と赤い丸で示す。

丸の上にカーソルを重ねると観測所名を参照できる。

次にクリックすると気象観測と天気予報を参照できる。

マップの切り替え:黒色「×」印の緑ボタンをクリックして拡大、「-」印の緑ボタンをクリックして縮小、緑色の三角印をクリックして隣りの地図に切り替え


METAR-TAF: